Time;durP1;ratioP1;P1;durP2;ratioP2;P2;SDS_P1;SDS_P2;PMS_P1;PMS_P2;Temp;Humidity;BMP_temperature;BMP_pressure;BME280_temperature;BME280_humidity;BME280_pressure;Samples;Min_cycle;Max_cycle;Signal;HPM_P1;HPM_P2
2022/03/04 00:01:05;;;;;;;58.40;32.50;;;;;;;0.34;49.29;98938.05;106160;1273;108654;-68
2022/03/04 00:03:39;;;;;;;63.70;32.90;;;;;;;0.35;49.40;98940.46;106158;1273;97887;-68
2022/03/04 00:06:11;;;;;;;64.40;34.40;;;;;;;0.36;49.47;98938.52;106168;1273;97861;-68
2022/03/04 00:08:42;;;;;;;63.20;32.80;;;;;;;0.35;49.48;98937.15;106129;1273;111817;-68
2022/03/04 00:11:11;;;;;;;63.80;35.80;;;;;;;0.38;49.66;98937.93;106153;1273;97898;-70
2022/03/04 00:13:41;;;;;;;67.60;36.40;;;;;;;0.39;49.58;98937.89;106125;1273;106308;-68
2022/03/04 00:16:13;;;;;;;66.80;36.80;;;;;;;0.42;49.55;98935.17;106087;1273;97988;-67
2022/03/04 00:18:41;;;;;;;64.90;34.40;;;;;;;0.44;49.65;98937.02;106154;1273;97945;-69
2022/03/04 00:21:15;;;;;;;65.00;34.50;;;;;;;0.44;49.70;98935.09;106101;1274;112330;-67
2022/03/04 00:23:43;;;;;;;63.70;33.70;;;;;;;0.43;49.63;98932.14;106185;1273;98046;-67
2022/03/04 00:26:13;;;;;;;64.20;33.20;;;;;;;0.45;49.75;98930.02;106132;1273;108356;-68
2022/03/04 00:28:44;;;;;;;61.30;33.30;;;;;;;0.46;49.72;98930.32;106227;1274;97882;-69
2022/03/04 00:31:14;;;;;;;61.60;32.90;;;;;;;0.47;49.79;98933.45;106118;1273;97884;-70
2022/03/04 00:33:45;;;;;;;61.70;34.80;;;;;;;0.48;49.87;98932.52;106099;1273;112024;-69
2022/03/04 00:36:22;;;;;;;65.20;34.10;;;;;;;0.50;49.96;98931.59;106010;1273;97999;-69
2022/03/04 00:38:55;;;;;;;70.40;35.10;;;;;;;0.52;49.87;98937.48;106102;1273;107512;-69
2022/03/04 00:41:26;;;;;;;66.90;35.00;;;;;;;0.49;49.99;98932.86;106118;1273;97887;-67
2022/03/04 00:43:54;;;;;;;66.10;34.30;;;;;;;0.45;49.92;98931.58;106185;1273;95202;-69
2022/03/04 00:46:28;;;;;;;66.70;34.70;;;;;;;0.41;49.98;98935.05;106065;1273;111028;-71
2022/03/04 00:48:56;;;;;;;62.00;33.20;;;;;;;0.32;50.01;98934.48;106053;1274;97061;-70
2022/03/04 00:51:30;;;;;;;62.20;33.90;;;;;;;0.25;50.08;98933.79;106047;1274;110551;-71
2022/03/04 00:53:57;;;;;;;62.50;33.00;;;;;;;0.23;50.19;98933.88;106099;1274;97983;-68
2022/03/04 00:56:28;;;;;;;63.70;34.40;;;;;;;0.18;50.23;98936.83;106047;1274;97796;-69
2022/03/04 00:59:01;;;;;;;62.00;32.20;;;;;;;0.15;50.21;98934.30;106042;1274;111960;-67
2022/03/04 01:01:29;;;;;;;63.40;33.90;;;;;;;0.10;50.36;98933.75;106111;1274;97972;-69
2022/03/04 01:04:03;;;;;;;63.50;33.70;;;;;;;0.09;50.29;98939.55;106000;1274;108219;-68
2022/03/04 01:06:31;;;;;;;63.90;34.20;;;;;;;0.05;50.80;98938.65;106015;1274;97889;-67
2022/03/04 01:09:05;;;;;;;62.10;32.60;;;;;;;-0.02;50.56;98939.18;106048;1274;97823;-68
2022/03/04 01:11:33;;;;;;;60.50;32.90;;;;;;;-0.01;50.55;98937.09;105978;1274;111823;-68
2022/03/04 01:14:07;;;;;;;63.20;33.70;;;;;;;-0.04;50.65;98932.27;106135;1274;97847;-68
2022/03/04 01:16:38;;;;;;;58.80;32.00;;;;;;;-0.08;50.60;98930.84;106043;1274;107793;-68
2022/03/04 01:19:09;;;;;;;59.50;31.80;;;;;;;-0.11;50.68;98934.59;106171;1274;97995;-67
2022/03/04 01:21:38;;;;;;;60.40;31.30;;;;;;;-0.18;50.58;98934.65;106118;1274;97827;-68
2022/03/04 01:24:09;;;;;;;61.30;31.90;;;;;;;-0.25;50.71;98933.28;106155;1274;112109;-68
2022/03/04 01:26:43;;;;;;;59.00;31.40;;;;;;;-0.29;50.93;98932.03;106167;1274;97855;-67
2022/03/04 01:29:14;;;;;;;59.90;31.70;;;;;;;-0.37;50.79;98930.34;106139;1274;107688;-68
2022/03/04 01:31:42;;;;;;;63.70;32.10;;;;;;;-0.37;50.86;98929.46;106040;1274;97897;-69
2022/03/04 01:34:14;;;;;;;64.90;34.00;;;;;;;-0.36;50.76;98933.60;106024;1274;95356;-69
2022/03/04 01:36:42;;;;;;;59.70;32.40;;;;;;;-0.37;50.84;98931.55;106019;1274;112037;-67
2022/03/04 01:39:12;;;;;;;58.10;30.90;;;;;;;-0.38;50.86;98931.42;106099;1274;97960;-66
2022/03/04 01:41:43;;;;;;;66.60;34.80;;;;;;;-0.39;50.87;98931.95;106042;1274;108308;-68
2022/03/04 01:44:13;;;;;;;66.80;33.90;;;;;;;-0.42;51.05;98931.18;106038;1274;95333;-67
2022/03/04 01:46:43;;;;;;;68.50;33.50;;;;;;;-0.45;50.83;98928.48;106078;1273;96542;-67
2022/03/04 01:49:17;;;;;;;65.00;32.70;;;;;;;-0.49;51.23;98920.92;106030;1274;111843;-67
2022/03/04 01:51:48;;;;;;;60.80;32.30;;;;;;;-0.53;51.09;98921.40;106088;1274;95270;-67
2022/03/04 01:54:16;;;;;;;62.90;32.90;;;;;;;-0.55;51.26;98922.67;105890;1274;107823;-68
2022/03/04 01:56:46;;;;;;;67.10;34.10;;;;;;;-0.56;51.03;98923.06;106023;1274;97848;-67
2022/03/04 01:59:14;;;;;;;69.00;35.60;;;;;;;-0.59;51.24;98921.59;106099;1274;97849;-67
2022/03/04 02:01:44;;;;;;;74.90;38.40;;;;;;;-0.62;51.25;98922.67;106157;1274;112076;-66
2022/03/04 02:04:15;;;;;;;69.90;34.90;;;;;;;-0.63;51.16;98919.44;106186;1274;95206;-68
2022/03/04 02:06:49;;;;;;;66.70;33.70;;;;;;;-0.64;51.45;98918.40;106223;1274;108171;-67
2022/03/04 02:09:22;;;;;;;62.60;33.00;;;;;;;-0.63;51.55;98921.00;106152;1273;97985;-67
2022/03/04 02:11:54;;;;;;;61.10;33.60;;;;;;;-0.62;51.49;98922.88;106240;1274;97832;-67
2022/03/04 02:14:25;;;;;;;61.50;32.30;;;;;;;-0.60;51.48;98926.46;106247;1274;111330;-67
2022/03/04 02:16:56;;;;;;;61.90;32.60;;;;;;;-0.57;51.61;98926.76;106138;1274;97644;-66
2022/03/04 02:19:26;;;;;;;63.00;32.60;;;;;;;-0.54;51.49;98927.89;106108;1274;108346;-67
2022/03/04 02:22:01;;;;;;;63.00;33.50;;;;;;;-0.53;51.59;98936.39;106102;1274;97909;-67
2022/03/04 02:24:33;;;;;;;66.00;33.00;;;;;;;-0.54;51.62;98935.71;106103;1274;97788;-67
2022/03/04 02:27:05;;;;;;;61.40;33.00;;;;;;;-0.56;51.61;98937.69;106079;1273;111994;-68
2022/03/04 02:29:34;;;;;;;66.90;34.10;;;;;;;-0.57;51.95;98938.77;106159;1273;97886;-66
2022/03/04 02:32:08;;;;;;;63.60;31.80;;;;;;;-0.60;51.69;98940.75;106170;1273;108322;-66
2022/03/04 02:34:39;;;;;;;63.30;33.20;;;;;;;-0.61;51.88;98940.41;106132;1273;97877;-66
2022/03/04 02:37:10;;;;;;;63.80;33.10;;;;;;;-0.59;52.18;98945.95;106133;1273;95363;-67
2022/03/04 02:39:38;;;;;;;67.50;32.10;;;;;;;-0.58;51.92;98943.14;106138;1273;111146;-70
2022/03/04 02:42:12;;;;;;;63.20;32.00;;;;;;;-0.59;51.90;98944.39;106186;1273;98374;-70
2022/03/04 02:44:40;;;;;;;62.70;30.40;;;;;;;-0.59;52.19;98942.48;106140;1273;108285;-68
2022/03/04 02:47:13;;;;;;;59.10;32.20;;;;;;;-0.56;52.04;98947.08;106052;1275;98045;-65
2022/03/04 02:49:41;;;;;;;60.70;31.50;;;;;;;-0.52;52.09;98946.98;106151;1274;95280;-68
2022/03/04 02:52:12;;;;;;;58.60;31.60;;;;;;;-0.52;52.37;98947.14;106142;1273;111908;-68
2022/03/04 02:54:42;;;;;;;58.20;30.00;;;;;;;-0.51;52.41;98945.55;106143;1273;96995;-67
2022/03/04 02:57:12;;;;;;;59.80;30.20;;;;;;;-0.49;52.34;98945.67;106134;1273;108218;-67
2022/03/04 02:59:42;;;;;;;64.30;33.30;;;;;;;-0.47;52.38;98950.31;106203;1273;95264;-65
2022/03/04 03:02:13;;;;;;;62.20;32.50;;;;;;;-0.49;52.38;98952.11;106158;1273;97955;-66
2022/03/04 03:04:43;;;;;;;58.20;31.00;;;;;;;-0.50;52.62;98952.16;106081;1273;111905;-67
2022/03/04 03:07:13;;;;;;;58.20;31.40;;;;;;;-0.49;52.76;98951.92;106117;1272;97957;-67
2022/03/04 03:09:42;;;;;;;60.10;30.90;;;;;;;-0.49;52.50;98948.81;106112;1274;108349;-67
2022/03/04 03:12:13;;;;;;;64.00;32.40;;;;;;;-0.47;52.84;98952.94;105986;1273;97893;-68
2022/03/04 03:14:42;;;;;;;61.00;31.70;;;;;;;-0.42;52.72;98953.84;106096;1273;98964;-67
2022/03/04 03:17:11;;;;;;;58.50;31.60;;;;;;;-0.39;52.91;98953.02;106146;1273;111992;-68
2022/03/04 03:19:41;;;;;;;64.40;33.50;;;;;;;-0.38;52.80;98953.18;106103;1273;97837;-68
2022/03/04 03:22:10;;;;;;;63.50;31.80;;;;;;;-0.39;52.79;98954.25;106148;1273;108387;-67
2022/03/04 03:24:45;;;;;;;60.00;32.30;;;;;;;-0.36;52.79;98953.31;106175;1273;97970;-66
2022/03/04 03:27:16;;;;;;;64.20;34.20;;;;;;;-0.36;52.90;98953.64;106189;1273;97857;-67
2022/03/04 03:29:45;;;;;;;61.50;33.80;;;;;;;-0.39;52.85;98955.48;106087;1273;110850;-68
2022/03/04 03:32:18;;;;;;;61.80;33.80;;;;;;;-0.40;52.83;98956.02;106101;1273;97874;-67
2022/03/04 03:34:46;;;;;;;62.60;32.70;;;;;;;-0.40;52.94;98956.73;103743;1273;3153980;-68
2022/03/04 03:37:20;;;;;;;62.80;33.40;;;;;;;-0.43;52.84;98958.04;106127;1273;98034;-68
2022/03/04 03:39:48;;;;;;;64.90;34.60;;;;;;;-0.49;53.03;98955.59;106119;1273;95249;-70
2022/03/04 03:42:21;;;;;;;60.50;33.40;;;;;;;-0.53;53.10;98953.27;106108;1273;111939;-71
2022/03/04 03:44:49;;;;;;;65.60;34.10;;;;;;;-0.54;53.18;98957.31;106090;1273;97862;-67
2022/03/04 03:47:19;;;;;;;64.50;32.80;;;;;;;-0.56;53.13;98963.13;106046;1273;108203;-67
2022/03/04 03:49:50;;;;;;;64.30;33.50;;;;;;;-0.59;53.35;98963.89;106066;1273;97955;-68
2022/03/04 03:52:22;;;;;;;63.20;33.60;;;;;;;-0.63;53.47;98962.80;106122;1273;95270;-66
2022/03/04 03:54:53;;;;;;;67.00;34.10;;;;;;;-0.69;53.22;98963.67;106118;1273;111405;-66
2022/03/04 03:57:21;;;;;;;63.30;33.60;;;;;;;-0.71;53.40;98966.49;106108;1274;97883;-65
2022/03/04 03:59:54;;;;;;;66.70;33.70;;;;;;;-0.70;53.34;98970.65;106067;1274;108997;-65
2022/03/04 04:02:22;;;;;;;65.70;33.80;;;;;;;-0.70;53.48;98969.42;105985;1274;96353;-66
2022/03/04 04:04:52;;;;;;;61.80;34.10;;;;;;;-0.68;53.55;98967.11;106103;1274;97964;-66
2022/03/04 04:07:22;;;;;;;62.70;32.20;;;;;;;-0.67;53.70;98968.66;106072;1274;111986;-67
2022/03/04 04:09:53;;;;;;;63.40;33.20;;;;;;;-0.67;53.59;98968.48;106005;1274;96257;-66
2022/03/04 04:12:22;;;;;;;65.90;32.20;;;;;;;-0.66;53.69;98971.94;105982;1274;108193;-69
2022/03/04 04:14:51;;;;;;;65.60;33.80;;;;;;;-0.65;53.74;98973.14;105985;1274;97916;-67
2022/03/04 04:17:21;;;;;;;69.50;35.60;;;;;;;-0.64;53.72;98975.36;106120;1274;95166;-69
2022/03/04 04:19:54;;;;;;;58.40;30.60;;;;;;;-0.64;53.69;98974.33;106086;1273;111976;-68
2022/03/04 04:22:22;;;;;;;68.30;35.00;;;;;;;-0.61;53.97;98974.06;106108;1273;97850;-67
2022/03/04 04:24:52;;;;;;;62.30;31.90;;;;;;;-0.59;53.89;98977.67;106096;1273;108327;-66
2022/03/04 04:27:20;;;;;;;61.10;30.80;;;;;;;-0.61;54.06;98977.88;106071;1273;97948;-66
2022/03/04 04:29:50;;;;;;;59.20;31.20;;;;;;;-0.57;53.89;98977.44;106078;1273;95181;-67
2022/03/04 04:32:20;;;;;;;58.10;30.60;;;;;;;-0.54;53.89;98976.81;106109;1273;112086;-67
2022/03/04 04:34:53;;;;;;;58.80;31.30;;;;;;;-0.50;53.96;98978.29;106103;1273;95201;-68
2022/03/04 04:37:21;;;;;;;62.30;31.00;;;;;;;-0.49;53.98;98982.08;106094;1273;108442;-67
2022/03/04 04:39:51;;;;;;;63.30;31.50;;;;;;;-0.48;53.97;98983.44;106044;1273;97196;-68
2022/03/04 04:42:22;;;;;;;59.10;30.30;;;;;;;-0.47;54.10;98986.02;106148;1273;97854;-67
2022/03/04 04:44:52;;;;;;;61.90;31.60;;;;;;;-0.47;53.94;98987.09;106131;1273;111440;-68
2022/03/04 04:47:22;;;;;;;62.30;30.70;;;;;;;-0.50;54.13;98987.67;106116;1273;97743;-66
2022/03/04 04:49:55;;;;;;;62.60;31.30;;;;;;;-0.48;54.12;98986.95;106047;1273;107201;-69
2022/03/04 04:52:23;;;;;;;59.20;31.50;;;;;;;-0.48;54.44;98990.23;106071;1273;95383;-69
2022/03/04 04:54:54;;;;;;;57.40;30.00;;;;;;;-0.46;54.22;98991.39;106053;1273;97750;-68
2022/03/04 04:57:24;;;;;;;67.60;31.70;;;;;;;-0.42;54.36;98991.80;106008;1273;111625;-69
2022/03/04 04:59:53;;;;;;;59.50;30.10;;;;;;;-0.38;54.60;98994.83;106123;1274;98555;-69
2022/03/04 05:02:21;;;;;;;59.40;30.40;;;;;;;-0.39;54.31;98995.39;106110;1274;108230;-68
2022/03/04 05:04:51;;;;;;;58.40;29.20;;;;;;;-0.41;54.38;98996.67;106065;1273;99454;-69
2022/03/04 05:07:22;;;;;;;61.70;31.20;;;;;;;-0.40;54.44;98999.96;106199;1273;96980;-68
2022/03/04 05:09:53;;;;;;;64.00;31.60;;;;;;;-0.38;54.58;98999.20;106141;1273;111412;-68
2022/03/04 05:12:21;;;;;;;59.20;32.40;;;;;;;-0.39;54.46;98993.28;106256;1273;95186;-70
2022/03/04 05:14:49;;;;;;;64.50;33.80;;;;;;;-0.38;54.56;98995.69;106129;1273;107556;-67
2022/03/04 05:17:17;;;;;;;57.80;30.40;;;;;;;-0.34;54.55;98997.13;106149;1273;97827;-70
2022/03/04 05:19:47;;;;;;;62.50;32.50;;;;;;;-0.28;54.56;99004.31;106160;1273;97885;-67
2022/03/04 05:22:15;;;;;;;59.70;32.20;;;;;;;-0.24;54.87;99005.60;106135;1273;113198;-67
2022/03/04 05:24:46;;;;;;;60.50;31.20;;;;;;;-0.22;54.67;99007.63;106130;1274;97881;-68
2022/03/04 05:27:15;;;;;;;61.60;31.90;;;;;;;-0.21;54.92;99014.39;106028;1273;108510;-68
2022/03/04 05:29:44;;;;;;;61.40;33.20;;;;;;;-0.19;54.76;99021.46;106035;1274;97919;-68
2022/03/04 05:32:15;;;;;;;63.40;32.80;;;;;;;-0.19;54.95;99021.27;106106;1274;97861;-67
2022/03/04 05:34:46;;;;;;;68.10;35.90;;;;;;;-0.18;54.97;99024.23;106178;1274;112469;-67
2022/03/04 05:37:15;;;;;;;67.10;34.40;;;;;;;-0.18;54.91;99022.98;106073;1273;96246;-68
2022/03/04 05:39:44;;;;;;;84.50;40.50;;;;;;;-0.17;54.93;99029.59;106104;1273;108452;-68
2022/03/04 05:42:12;;;;;;;89.00;43.70;;;;;;;-0.18;55.10;99030.51;106001;1274;97977;-68
2022/03/04 05:44:42;;;;;;;89.10;42.20;;;;;;;-0.18;55.07;99030.48;106223;1273;98005;-68
2022/03/04 05:47:13;;;;;;;83.70;40.30;;;;;;;-0.17;55.22;99036.20;106073;1274;111905;-67
2022/03/04 05:49:47;;;;;;;84.50;42.20;;;;;;;-0.15;55.02;99036.67;106131;1275;97895;-67
2022/03/04 05:52:15;;;;;;;84.40;40.00;;;;;;;-0.14;55.25;99036.84;106224;1273;107745;-65
2022/03/04 05:54:48;;;;;;;83.90;41.60;;;;;;;-0.11;55.18;99036.23;106248;1273;97840;-67
2022/03/04 05:57:16;;;;;;;69.30;36.40;;;;;;;-0.09;55.21;99038.27;106182;1273;97987;-70
2022/03/04 05:59:44;;;;;;;64.90;34.20;;;;;;;-0.09;55.24;99038.95;106100;1273;112491;-67
2022/03/04 06:02:14;;;;;;;63.30;32.90;;;;;;;-0.10;55.42;99043.52;106134;1273;97873;-65
2022/03/04 06:04:45;;;;;;;64.90;33.10;;;;;;;-0.11;55.24;99047.57;106216;1273;108470;-67
2022/03/04 06:07:15;;;;;;;59.80;31.80;;;;;;;-0.11;55.30;99047.39;106087;1274;98030;-69
2022/03/04 06:09:45;;;;;;;62.50;32.30;;;;;;;-0.12;55.27;99047.95;106194;1273;97867;-64
2022/03/04 06:12:15;;;;;;;58.80;31.30;;;;;;;-0.11;55.32;99052.27;106192;1273;111599;-68
2022/03/04 06:14:43;;;;;;;58.70;31.00;;;;;;;-0.07;55.61;99055.10;106133;1274;99511;-68
2022/03/04 06:17:11;;;;;;;61.30;32.80;;;;;;;-0.03;55.55;99057.79;105939;1274;106073;-68
2022/03/04 06:19:41;;;;;;;58.60;31.70;;;;;;;0.02;55.75;99058.87;106153;1273;97990;-69
2022/03/04 06:22:12;;;;;;;67.30;33.90;;;;;;;0.04;55.68;99060.19;106039;1274;95192;-68
2022/03/04 06:24:40;;;;;;;62.40;32.80;;;;;;;0.07;55.52;99059.95;106200;1273;112069;-68
2022/03/04 06:27:11;;;;;;;63.40;33.40;;;;;;;0.08;55.66;99067.73;106233;1273;97717;-68
2022/03/04 06:29:42;;;;;;;64.80;32.30;;;;;;;0.11;55.77;99064.88;106111;1273;108831;-70
2022/03/04 06:32:15;;;;;;;63.70;33.00;;;;;;;0.12;55.77;99064.46;105984;1273;97984;-68
2022/03/04 06:34:46;;;;;;;;;;;;;;;0.16;55.81;99066.84;106186;1273;95154;-70
2022/03/04 06:37:16;;;;;;;60.90;32.60;;;;;;;0.13;55.88;99069.84;106082;1274;111906;-67
2022/03/04 06:39:46;;;;;;;61.10;31.00;;;;;;;0.12;55.87;99072.16;106038;1273;97960;-68
2022/03/04 06:42:17;;;;;;;63.70;32.70;;;;;;;0.11;55.86;99073.58;106015;1273;108390;-72
2022/03/04 06:44:47;;;;;;;63.20;31.50;;;;;;;0.12;55.79;99073.02;106096;1273;98015;-69
2022/03/04 06:47:16;;;;;;;59.60;31.10;;;;;;;0.12;55.98;99077.90;105898;1274;96607;-66
2022/03/04 06:49:45;;;;;;;57.90;28.70;;;;;;;0.13;55.95;99077.54;106036;1273;112086;-68
2022/03/04 06:52:16;;;;;;;60.80;31.00;;;;;;;0.12;56.03;99079.83;106051;1273;98384;-69
2022/03/04 06:54:45;;;;;;;61.70;31.60;;;;;;;0.14;55.95;99082.91;105919;1273;108064;-69
2022/03/04 06:57:13;;;;;;;61.80;32.20;;;;;;;0.15;55.92;99080.45;106089;1273;97900;-70
2022/03/04 06:59:42;;;;;;;57.50;30.10;;;;;;;0.17;55.85;99085.79;105921;1273;96479;-69
2022/03/04 07:02:12;;;;;;;53.60;28.50;;;;;;;0.20;56.00;99085.71;106083;1273;111978;-70
2022/03/04 07:04:50;;;;;;;51.90;27.20;;;;;;;0.22;55.97;99089.29;106114;1273;95214;-69
2022/03/04 07:07:20;;;;;;;53.20;27.70;;;;;;;0.26;56.04;99088.15;106123;1273;107793;-68
2022/03/04 07:09:49;;;;;;;55.50;28.70;;;;;;;0.29;56.13;99089.60;106105;1274;98588;-68
2022/03/04 07:12:20;;;;;;;55.30;28.30;;;;;;;0.34;56.11;99092.95;106060;1274;97982;-68
2022/03/04 07:14:50;;;;;;;55.10;26.40;;;;;;;0.38;56.16;99093.71;106113;1273;112108;-72
2022/03/04 07:17:27;;;;;;;49.30;24.80;;;;;;;0.41;56.17;99092.22;106124;1273;97592;-68
2022/03/04 07:19:55;;;;;;;;;;;;;;;0.42;56.11;99095.34;105969;1273;107751;-67
2022/03/04 07:22:24;;;;;;;48.50;25.80;;;;;;;0.37;56.21;99093.06;105938;1273;97990;-67
2022/03/04 07:24:54;;;;;;;48.40;24.50;;;;;;;0.36;56.13;99095.00;106019;1274;97862;-69
2022/03/04 07:27:22;;;;;;;44.50;22.10;;;;;;;0.39;56.29;99092.28;105963;1274;112230;-69
2022/03/04 07:29:51;;;;;;;42.50;22.00;;;;;;;0.37;56.05;99093.93;106038;1273;97948;-69
2022/03/04 07:32:22;;;;;;;43.10;21.40;;;;;;;0.33;56.13;99096.47;106018;1273;108469;-66
2022/03/04 07:34:57;;;;;;;41.20;20.60;;;;;;;0.34;56.29;99097.84;106057;1275;97955;-69
2022/03/04 07:37:26;;;;;;;41.30;21.70;;;;;;;0.35;56.37;99098.70;106102;1273;97824;-71
2022/03/04 07:39:54;;;;;;;42.40;22.50;;;;;;;0.36;56.25;99104.23;106023;1273;111385;-70
2022/03/04 07:42:25;;;;;;;41.50;19.90;;;;;;;0.39;56.26;99100.84;105935;1274;97923;-70
2022/03/04 07:44:53;;;;;;;40.30;19.70;;;;;;;0.46;56.40;99102.89;106022;1274;107865;-68
2022/03/04 07:47:23;;;;;;;37.50;19.30;;;;;;;0.50;56.40;99102.41;106067;1273;95293;-69
2022/03/04 07:49:52;;;;;;;45.40;22.30;;;;;;;0.50;56.39;99101.73;106185;1273;95315;-69
2022/03/04 07:52:20;;;;;;;42.80;23.00;;;;;;;0.52;56.41;99105.14;105928;1274;110401;-69
2022/03/04 07:54:48;;;;;;;43.40;22.20;;;;;;;0.55;56.41;99096.32;106028;1273;97942;-70
2022/03/04 07:57:16;;;;;;;41.00;20.80;;;;;;;0.57;56.43;99104.31;105975;1273;106821;-70
2022/03/04 07:59:44;;;;;;;48.50;24.40;;;;;;;0.61;56.51;99105.38;106023;1274;98003;-71
2022/03/04 08:02:12;;;;;;;51.80;26.20;;;;;;;0.66;56.50;99104.20;106064;1273;97814;-67
2022/03/04 08:04:41;;;;;;;47.50;24.80;;;;;;;0.71;56.60;99105.61;106050;1274;111380;-71
2022/03/04 08:07:09;;;;;;;47.90;23.60;;;;;;;0.74;56.47;99108.14;106083;1273;95327;-69
2022/03/04 08:09:38;;;;;;;43.40;21.40;;;;;;;0.80;56.50;99105.52;106132;1273;109278;-69
2022/03/04 08:12:09;;;;;;;40.90;21.50;;;;;;;0.84;56.55;99101.88;106149;1273;97863;-69
2022/03/04 08:14:38;;;;;;;39.80;19.70;;;;;;;0.85;56.49;99108.45;106154;1273;97860;-68
2022/03/04 08:17:08;;;;;;;40.30;21.60;;;;;;;0.83;56.54;99113.23;106130;1273;112042;-70
2022/03/04 08:19:39;;;;;;;40.20;20.20;;;;;;;0.84;56.59;99118.28;106053;1273;99061;-68
2022/03/04 08:22:11;;;;;;;38.10;19.10;;;;;;;0.89;56.54;99119.53;106050;1274;107809;-69
2022/03/04 08:24:54;;;;;;;43.10;22.50;;;;;;;0.93;56.63;99121.50;105852;1274;97971;-70
2022/03/04 08:27:22;;;;;;;46.90;23.70;;;;;;;0.92;56.46;99119.45;106048;1274;97920;-69
2022/03/04 08:29:50;;;;;;;38.60;20.40;;;;;;;0.87;56.54;99116.95;105932;1273;112080;-68
2022/03/04 08:32:22;;;;;;;41.20;21.80;;;;;;;0.87;56.56;99114.88;106012;1273;97899;-69
2022/03/04 08:34:54;;;;;;;41.30;20.60;;;;;;;0.87;56.51;99116.95;105832;1274;108313;-70
2022/03/04 08:37:22;;;;;;;41.70;20.40;;;;;;;0.84;56.49;99120.37;105939;1274;97993;-68
2022/03/04 08:39:50;;;;;;;41.60;20.30;;;;;;;0.86;56.59;99121.20;105974;1273;97945;-68
2022/03/04 08:42:18;;;;;;;48.60;24.00;;;;;;;0.89;56.69;99115.85;105929;1273;111875;-69
2022/03/04 08:44:46;;;;;;;42.80;22.40;;;;;;;0.88;56.49;99111.36;105889;1273;97829;-69
2022/03/04 08:47:14;;;;;;;45.50;22.50;;;;;;;0.81;56.59;99121.88;105953;1273;108178;-67
2022/03/04 08:49:43;;;;;;;47.40;24.70;;;;;;;0.75;56.51;99120.85;106040;1273;95201;-68
2022/03/04 08:52:11;;;;;;;48.20;23.90;;;;;;;0.75;56.48;99121.20;106054;1273;97741;-69
2022/03/04 08:54:39;;;;;;;51.10;23.20;;;;;;;0.77;56.72;99122.20;106110;1272;111978;-70
2022/03/04 08:57:07;;;;;;;48.40;23.10;;;;;;;0.77;56.61;99119.92;105981;1274;95224;-70
2022/03/04 08:59:35;;;;;;;47.90;24.00;;;;;;;0.80;56.92;99121.39;106133;1275;107546;-71
2022/03/04 09:02:03;;;;;;;46.80;24.40;;;;;;;0.82;56.83;99125.14;106067;1273;97828;-69
2022/03/04 09:04:32;;;;;;;47.10;24.20;;;;;;;0.87;56.83;99124.48;106189;1273;98621;-68
2022/03/04 09:07:02;;;;;;;48.30;25.30;;;;;;;0.91;56.86;99123.48;106225;1273;111404;-68
2022/03/04 09:09:30;;;;;;;48.90;26.00;;;;;;;0.96;56.92;99120.70;106216;1273;98067;-67
2022/03/04 09:11:59;;;;;;;49.30;25.30;;;;;;;1.03;56.93;99122.74;106195;1274;107668;-68
2022/03/04 09:14:27;;;;;;;49.10;26.80;;;;;;;1.12;57.06;99130.14;106050;1274;97884;-68
2022/03/04 09:16:56;;;;;;;49.70;26.00;;;;;;;1.14;56.94;99135.14;106068;1274;97891;-69
2022/03/04 09:19:24;;;;;;;51.60;26.10;;;;;;;1.15;57.09;99139.13;106031;1272;111610;-68
2022/03/04 09:22:13;;;;;;;53.30;28.40;;;;;;;1.16;57.04;99140.83;106093;1274;97717;-67
2022/03/04 09:24:41;;;;;;;53.50;28.20;;;;;;;1.14;57.08;99136.89;106186;1274;107623;-68
2022/03/04 09:27:10;;;;;;;54.80;27.10;;;;;;;1.18;57.00;99141.66;106083;1273;97893;-70
2022/03/04 09:29:38;;;;;;;54.30;28.30;;;;;;;1.19;56.95;99142.84;106021;1273;96213;-69
2022/03/04 09:32:07;;;;;;;53.80;27.90;;;;;;;1.19;57.11;99143.54;106111;1273;111124;-69
2022/03/04 09:34:35;;;;;;;54.20;27.50;;;;;;;1.14;57.03;99145.80;106201;1273;97951;-70
2022/03/04 09:37:04;;;;;;;57.60;28.10;;;;;;;1.16;57.03;99144.51;106138;1273;107634;-69
2022/03/04 09:39:33;;;;;;;49.80;27.50;;;;;;;1.15;56.98;99139.99;106166;1273;97665;-69
2022/03/04 09:42:01;;;;;;;49.60;26.00;;;;;;;1.15;57.12;99146.10;106000;1273;97948;-68
2022/03/04 09:44:30;;;;;;;51.50;26.10;;;;;;;1.20;57.26;99148.73;106036;1274;111374;-70
2022/03/04 09:47:01;;;;;;;48.30;25.10;;;;;;;1.29;57.09;99151.77;106038;1274;97947;-69
2022/03/04 09:49:35;;;;;;;49.70;26.60;;;;;;;1.33;57.20;99146.73;106238;1274;107824;-69
2022/03/04 09:52:06;;;;;;;44.10;24.30;;;;;;;1.37;57.31;99150.09;106074;1275;96699;-70
2022/03/04 09:54:34;;;;;;;46.40;23.30;;;;;;;1.42;57.18;99146.27;106102;1274;97949;-69
2022/03/04 09:57:03;;;;;;;46.90;24.30;;;;;;;1.47;57.28;99146.41;105984;1274;111701;-67
2022/03/04 09:59:31;;;;;;;50.00;25.80;;;;;;;1.51;57.16;99141.97;106077;1274;97861;-68
2022/03/04 10:01:59;;;;;;;48.50;25.80;;;;;;;1.52;57.23;99142.60;106092;1275;108379;-68
2022/03/04 10:04:29;;;;;;;44.60;23.80;;;;;;;1.57;57.21;99138.42;105990;1274;97875;-69
2022/03/04 10:06:57;;;;;;;47.70;24.90;;;;;;;1.62;57.32;99142.26;106025;1273;99015;-70
2022/03/04 10:09:45;;;;;;;45.80;23.70;;;;;;;1.65;57.06;99134.11;105913;1275;111618;-69
2022/03/04 10:12:18;;;;;;;43.70;23.00;;;;;;;1.73;57.06;99135.41;105960;1273;96286;-70
2022/03/04 10:15:02;;;;;;;46.00;23.30;;;;;;;1.78;57.13;99130.67;106145;1274;107503;-69
2022/03/04 10:17:32;;;;;;;42.40;21.70;;;;;;;1.84;57.37;99136.23;106062;1273;97891;-69
2022/03/04 10:20:15;;;;;;;42.70;22.20;;;;;;;1.88;57.20;99134.18;106045;1273;97963;-68
2022/03/04 10:22:46;;;;;;;40.70;22.10;;;;;;;1.89;57.00;99136.93;106021;1273;112237;-68
2022/03/04 10:25:23;;;;;;;43.60;21.80;;;;;;;1.82;56.93;99137.23;106097;1273;95191;-68
2022/03/04 10:27:53;;;;;;;41.10;21.40;;;;;;;1.74;56.81;99137.47;106101;1273;107938;-69
2022/03/04 10:30:33;;;;;;;43.40;21.30;;;;;;;1.74;57.35;99140.81;106060;1273;97857;-71
2022/03/04 10:33:11;;;;;;;46.30;23.40;;;;;;;1.77;57.14;99138.75;106092;1273;95175;-69
2022/03/04 10:35:40;;;;;;;46.30;24.30;;;;;;;1.83;57.29;99135.24;105800;1273;111442;-68
2022/03/04 10:38:24;;;;;;;43.50;22.30;;;;;;;1.88;57.18;99135.58;105811;1273;97857;-69
2022/03/04 10:40:54;;;;;;;43.70;22.70;;;;;;;1.90;56.92;99137.45;106062;1273;107666;-70
2022/03/04 10:43:32;;;;;;;44.80;21.90;;;;;;;1.93;57.10;99135.22;106022;1273;97913;-68
2022/03/04 10:46:03;;;;;;;45.70;23.40;;;;;;;1.97;57.59;99135.96;106025;1273;97017;-70
2022/03/04 10:48:36;;;;;;;40.70;20.40;;;;;;;1.99;57.27;99136.95;105892;1273;112373;-69
2022/03/04 10:51:05;;;;;;;40.70;21.20;;;;;;;2.03;57.23;99134.16;105965;1273;97853;-68
2022/03/04 10:53:35;;;;;;;46.00;22.20;;;;;;;2.02;57.02;99136.32;106041;1273;107787;-68
2022/03/04 10:56:07;;;;;;;42.10;20.70;;;;;;;1.94;57.09;99134.49;106061;1273;95797;-69
2022/03/04 10:58:41;;;;;;;43.00;20.60;;;;;;;1.89;57.18;99130.81;106016;1273;97880;-69
2022/03/04 11:01:18;;;;;;;47.70;22.30;;;;;;;1.89;57.10;99130.63;105915;1273;111487;-68
2022/03/04 11:03:47;;;;;;;39.60;20.30;;;;;;;1.91;57.01;99131.46;106092;1273;97877;-67
2022/03/04 11:06:17;;;;;;;44.80;22.80;;;;;;;1.92;57.34;99133.70;106046;1274;108532;-69
2022/03/04 11:08:48;;;;;;;47.40;24.00;;;;;;;1.91;57.31;99131.27;106024;1273;97972;-66
2022/03/04 11:11:16;;;;;;;40.80;20.80;;;;;;;1.93;57.20;99129.80;106221;1273;97805;-68
2022/03/04 11:13:45;;;;;;;38.70;19.20;;;;;;;1.92;56.96;99132.10;106699;1273;112240;-68
2022/03/04 11:16:15;;;;;;;40.90;20.10;;;;;;;1.89;57.26;99134.13;105910;1273;98061;-69
2022/03/04 11:18:46;;;;;;;42.20;20.10;;;;;;;1.92;57.16;99133.50;105998;1273;108414;-69
2022/03/04 11:21:17;;;;;;;42.20;21.60;;;;;;;1.97;57.19;99132.46;105985;1274;95249;-71
2022/03/04 11:23:47;;;;;;;44.00;22.00;;;;;;;2.00;57.04;99127.30;106081;1273;98151;-68
2022/03/04 11:26:16;;;;;;;44.70;22.60;;;;;;;2.03;57.22;99125.96;105848;1275;111988;-68